Time,TemperatureF,DewpointF,PressureIn,WindDirection,WindDirectionDegrees,WindSpeedMPH,WindSpeedGustMPH,Humidity,HourlyPrecipIn,Conditions,Clouds,dailyrainin,SoftwareType,DateUTC
2013-04-13 07:22:00,35.4,33.3,29.93,NW,306,4.0,4.0,92,0.00,,,0.00,Wunderground v.1.15,2013-04-13 12:22:00,
2013-04-13 07:27:00,35.1,32.5,29.93,West,275,5.0,10.0,90,0.00,,,0.00,Wunderground v.1.15,2013-04-13 12:27:00,
2013-04-13 07:28:00,35.1,32.2,29.93,WSW,256,6.0,10.0,89,0.00,,,0.00,Wunderground v.1.15,2013-04-13 12:28:00,
2013-04-13 07:34:00,35.2,32.0,29.93,WSW,254,6.0,7.0,88,0.00,,,0.00,Wunderground v.1.15,2013-04-13 12:34:00,
2013-04-13 07:39:00,35.3,32.1,29.93,WSW,258,5.0,7.0,88,0.00,,,0.00,Wunderground v.1.15,2013-04-13 12:39:00,
2013-04-13 07:44:00,35.4,32.2,29.93,WSW,254,5.0,7.0,88,0.00,,,0.00,Wunderground v.1.15,2013-04-13 12:44:00,
2013-04-13 07:49:00,35.6,32.1,29.93,WSW,252,5.0,10.0,87,0.00,,,0.00,Wunderground v.1.15,2013-04-13 12:49:00,
2013-04-13 07:55:00,35.8,32.3,29.93,WSW,250,5.0,6.0,87,0.00,,,0.00,Wunderground v.1.15,2013-04-13 12:55:00,
2013-04-13 08:02:00,36.0,32.2,29.93,WNW,289,6.0,6.0,86,0.00,,,0.00,Wunderground v.1.15,2013-04-13 13:02:00,
2013-04-13 08:07:00,36.1,32.0,29.94,West,266,6.0,6.0,85,0.00,,,0.00,Wunderground v.1.15,2013-04-13 13:07:00,
2013-04-13 08:13:00,36.3,31.9,29.94,West,266,6.0,8.0,84,0.00,,,0.00,Wunderground v.1.15,2013-04-13 13:13:00,
2013-04-13 08:21:00,36.5,32.1,29.94,West,263,5.0,5.0,84,0.00,,,0.00,Wunderground v.1.15,2013-04-13 13:21:00,
2013-04-13 08:26:00,36.7,32.3,29.94,WSW,256,5.0,6.0,84,0.00,,,0.00,Wunderground v.1.15,2013-04-13 13:26:00,
2013-04-13 08:32:00,37.0,31.7,29.94,West,275,6.0,7.0,81,0.00,,,0.00,Wunderground v.1.15,2013-04-13 13:32:00,
2013-04-13 08:37:00,37.1,31.2,29.94,West,276,6.0,9.0,79,0.00,,,0.00,Wunderground v.1.15,2013-04-13 13:37:00,
2013-04-13 08:42:00,37.3,31.4,29.94,WSW,254,6.0,7.0,79,0.00,,,0.00,Wunderground v.1.15,2013-04-13 13:42:00,
2013-04-13 08:49:00,37.4,31.5,29.94,West,269,6.0,10.0,79,0.00,,,0.00,Wunderground v.1.15,2013-04-13 13:49:00,
2013-04-13 08:54:00,37.5,31.6,29.94,WNW,288,6.0,6.0,79,0.00,,,0.00,Wunderground v.1.15,2013-04-13 13:54:00,
2013-04-13 08:59:00,37.5,31.3,29.94,SSW,213,6.0,10.0,78,0.00,,,0.00,Wunderground v.1.15,2013-04-13 13:59:00,
2013-04-13 09:04:00,37.5,30.9,29.94,West,277,6.0,9.0,77,0.00,,,0.00,Wunderground v.1.15,2013-04-13 14:04:00,
2013-04-13 09:10:00,37.6,31.0,29.95,WNW,291,7.0,7.0,77,0.00,,,0.00,Wunderground v.1.15,2013-04-13 14:10:00,
2013-04-13 09:16:00,37.6,31.0,29.95,WSW,252,6.0,11.0,77,0.00,,,0.00,Wunderground v.1.15,2013-04-13 14:16:00,
2013-04-13 09:23:00,37.5,31.6,29.95,WSW,250,6.0,7.0,79,0.00,,,0.00,Wunderground v.1.15,2013-04-13 14:23:00,
2013-04-13 09:28:00,37.7,31.1,29.95,WNW,296,6.0,7.0,77,0.00,,,0.00,Wunderground v.1.15,2013-04-13 14:28:00,
2013-04-13 09:34:00,37.9,32.3,29.96,SSW,209,7.0,9.0,80,0.00,,,0.00,Wunderground v.1.15,2013-04-13 14:34:00,
2013-04-13 09:39:00,38.1,31.5,29.96,West,275,6.0,9.0,77,0.00,,,0.00,Wunderground v.1.15,2013-04-13 14:39:00,
2013-04-13 09:45:00,38.2,31.3,29.96,West,266,7.0,9.0,76,0.00,,,0.00,Wunderground v.1.15,2013-04-13 14:45:00,
2013-04-13 09:50:00,38.3,32.4,29.96,WNW,291,6.0,6.0,79,0.00,,,0.00,Wunderground v.1.15,2013-04-13 14:50:00,
2013-04-13 09:55:00,38.1,31.5,29.96,West,271,6.0,10.0,77,0.00,,,0.00,Wunderground v.1.15,2013-04-13 14:55:00,
2013-04-13 10:00:00,37.9,31.7,29.96,SSW,211,6.0,15.0,78,0.00,,,0.00,Wunderground v.1.15,2013-04-13 15:00:00,
2013-04-13 10:07:00,38.0,32.1,29.96,West,260,6.0,15.0,79,0.00,,,0.00,Wunderground v.1.15,2013-04-13 15:07:00,
2013-04-13 10:13:00,38.1,31.8,29.96,West,264,7.0,9.0,78,0.00,,,0.00,Wunderground v.1.15,2013-04-13 15:13:00,
2013-04-13 10:18:00,38.3,32.4,29.97,SW,236,6.0,9.0,79,0.00,,,0.00,Wunderground v.1.15,2013-04-13 15:18:00,
2013-04-13 10:24:00,38.7,31.8,29.97,WNW,290,7.0,10.0,76,0.00,,,0.00,Wunderground v.1.15,2013-04-13 15:24:00,
2013-04-13 10:30:00,39.1,31.5,29.97,WSW,254,7.0,7.0,74,0.00,,,0.00,Wunderground v.1.15,2013-04-13 15:30:00,
2013-04-13 10:36:00,38.8,30.9,29.97,WNW,295,6.0,11.0,73,0.00,,,0.00,Wunderground v.1.15,2013-04-13 15:36:00,
2013-04-13 10:42:00,38.5,30.6,29.97,West,273,7.0,7.0,73,0.00,,,0.00,Wunderground v.1.15,2013-04-13 15:42:00,
2013-04-13 10:47:00,38.5,31.3,29.97,WSW,250,7.0,9.0,75,0.00,,,0.00,Wunderground v.1.15,2013-04-13 15:47:00,
2013-04-13 10:52:00,38.6,31.4,29.97,WNW,289,7.0,7.0,75,0.00,,,0.00,Wunderground v.1.15,2013-04-13 15:52:00,
2013-04-13 10:58:00,38.7,30.4,29.98,WNW,286,8.0,10.0,72,0.00,,,0.00,Wunderground v.1.15,2013-04-13 15:58:00,
2013-04-13 11:04:00,38.9,32.0,29.98,WSW,257,7.0,9.0,76,0.00,,,0.00,Wunderground v.1.15,2013-04-13 16:04:00,
2013-04-13 11:09:00,39.4,31.8,29.98,WNW,295,6.0,11.0,74,0.00,,,0.00,Wunderground v.1.15,2013-04-13 16:09:00,
2013-04-13 11:15:00,39.7,31.4,29.98,West,259,6.0,8.0,72,0.00,,,0.00,Wunderground v.1.15,2013-04-13 16:15:00,
2013-04-13 11:20:00,39.8,31.2,29.98,SW,235,6.0,11.0,71,0.00,,,0.00,Wunderground v.1.15,2013-04-13 16:20:00,
2013-04-13 11:25:00,39.7,31.8,29.98,WNW,283,7.0,11.0,73,0.00,,,0.00,Wunderground v.1.15,2013-04-13 16:25:00,
2013-04-13 11:32:00,40.0,31.7,29.99,NW,311,7.0,7.0,72,0.00,,,0.00,Wunderground v.1.15,2013-04-13 16:32:00,
2013-04-13 11:38:00,40.2,31.5,29.99,WNW,284,6.0,12.0,71,0.00,,,0.00,Wunderground v.1.15,2013-04-13 16:38:00,
2013-04-13 11:43:00,39.8,32.2,29.99,WNW,286,7.0,12.0,74,0.00,,,0.00,Wunderground v.1.15,2013-04-13 16:43:00,
2013-04-13 11:49:00,39.7,32.4,29.99,WNW,286,6.0,12.0,75,0.00,,,0.00,Wunderground v.1.15,2013-04-13 16:49:00,
2013-04-13 11:55:00,40.2,32.6,29.99,West,276,6.0,8.0,74,0.00,,,0.00,Wunderground v.1.15,2013-04-13 16:55:00,
2013-04-13 12:02:00,40.2,32.6,29.99,West,268,7.0,9.0,74,0.00,,,0.00,Wunderground v.1.15,2013-04-13 17:02:00,
2013-04-13 12:08:00,40.2,32.2,29.99,WNW,286,6.0,9.0,73,0.00,,,0.00,Wunderground v.1.15,2013-04-13 17:08:00,
2013-04-13 12:14:00,40.5,31.8,29.99,West,277,6.0,12.0,71,0.00,,,0.00,Wunderground v.1.15,2013-04-13 17:14:00,
2013-04-13 12:20:00,40.6,32.6,29.99,West,279,6.0,6.0,73,0.00,,,0.00,Wunderground v.1.15,2013-04-13 17:20:00,
2013-04-13 12:26:00,40.7,32.7,29.99,WSW,249,6.0,7.0,73,0.00,,,0.00,Wunderground v.1.15,2013-04-13 17:26:00,
2013-04-13 12:32:00,41.0,31.6,29.99,SW,234,7.0,18.0,69,0.00,,,0.00,Wunderground v.1.15,2013-04-13 17:32:00,
2013-04-13 12:37:00,41.4,33.0,29.99,NW,304,7.0,18.0,72,0.00,,,0.00,Wunderground v.1.15,2013-04-13 17:37:00,
2013-04-13 12:42:00,41.9,33.9,29.99,WNW,292,6.0,14.0,73,0.00,,,0.00,Wunderground v.1.15,2013-04-13 17:42:00,
2013-04-13 12:49:00,42.0,33.3,29.99,NW,305,7.0,14.0,71,0.00,,,0.00,Wunderground v.1.15,2013-04-13 17:49:00,
2013-04-13 12:54:00,42.3,33.6,29.98,WNW,295,7.0,8.0,71,0.00,,,0.00,Wunderground v.1.15,2013-04-13 17:54:00,
2013-04-13 12:59:00,42.7,32.9,29.98,NW,313,8.0,10.0,68,0.00,,,0.00,Wunderground v.1.15,2013-04-13 17:59:00,
2013-04-13 13:05:00,42.4,32.2,29.98,WNW,289,7.0,8.0,67,0.00,,,0.00,Wunderground v.1.15,2013-04-13 18:05:00,
2013-04-13 13:11:00,42.7,34.3,29.98,NW,315,7.0,7.0,72,0.00,,,0.00,Wunderground v.1.15,2013-04-13 18:11:00,
2013-04-13 13:19:00,44.4,33.4,29.98,West,275,6.0,7.0,65,0.00,,,0.00,Wunderground v.1.15,2013-04-13 18:19:00,
2013-04-13 13:24:00,44.6,33.6,29.98,WSW,252,6.0,15.0,65,0.00,,,0.00,Wunderground v.1.15,2013-04-13 18:24:00,
2013-04-13 13:27:00,44.3,32.9,29.98,West,274,6.0,15.0,64,0.00,,,0.00,Wunderground v.1.15,2013-04-13 18:27:00,
2013-04-13 13:28:00,44.3,33.3,29.98,WNW,297,6.0,15.0,65,0.00,,,0.00,Wunderground v.1.15,2013-04-13 18:28:00,
2013-04-13 13:32:00,44.4,33.7,29.98,West,263,6.0,8.0,66,0.00,,,0.00,Wunderground v.1.15,2013-04-13 18:32:00,
2013-04-13 13:36:00,44.0,32.6,29.98,WSW,243,6.0,9.0,64,0.00,,,0.00,Wunderground v.1.15,2013-04-13 18:36:00,
2013-04-13 13:42:00,44.3,34.4,29.98,WSW,248,6.0,6.0,68,0.00,,,0.00,Wunderground v.1.15,2013-04-13 18:42:00,
2013-04-13 13:47:00,44.5,33.1,29.98,West,265,6.0,11.0,64,0.00,,,0.00,Wunderground v.1.15,2013-04-13 18:47:00,
2013-04-13 13:53:00,44.4,35.2,29.98,West,263,7.0,9.0,70,0.00,,,0.00,Wunderground v.1.15,2013-04-13 18:53:00,
2013-04-13 13:59:00,44.9,34.2,29.98,WSW,246,7.0,11.0,66,0.00,,,0.00,Wunderground v.1.15,2013-04-13 18:59:00,
2013-04-13 14:04:00,45.6,35.3,29.98,WNW,302,6.0,7.0,67,0.00,,,0.00,Wunderground v.1.15,2013-04-13 19:04:00,
2013-04-13 14:10:00,45.6,34.9,29.98,West,265,6.0,6.0,66,0.00,,,0.00,Wunderground v.1.15,2013-04-13 19:10:00,
2013-04-13 14:15:00,45.3,32.6,29.98,West,267,7.0,11.0,61,0.00,,,0.00,Wunderground v.1.15,2013-04-13 19:15:00,
2013-04-13 14:22:00,45.4,34.3,29.98,West,273,7.0,16.0,65,0.00,,,0.00,Wunderground v.1.15,2013-04-13 19:22:00,
2013-04-13 14:28:00,45.9,34.8,29.98,WSW,254,8.0,16.0,65,0.00,,,0.00,Wunderground v.1.15,2013-04-13 19:28:00,
2013-04-13 14:33:00,46.2,35.5,29.98,SW,227,7.0,10.0,66,0.00,,,0.00,Wunderground v.1.15,2013-04-13 19:33:00,
2013-04-13 14:39:00,46.5,35.4,29.98,West,267,7.0,10.0,65,0.00,,,0.00,Wunderground v.1.15,2013-04-13 19:39:00,
2013-04-13 14:44:00,46.1,33.0,29.98,WNW,290,7.0,9.0,60,0.00,,,0.00,Wunderground v.1.15,2013-04-13 19:44:00,
2013-04-13 14:50:00,46.4,35.3,29.98,WNW,289,7.0,9.0,65,0.00,,,0.00,Wunderground v.1.15,2013-04-13 19:50:00,
2013-04-13 14:55:00,46.9,36.5,29.98,WSW,242,7.0,9.0,67,0.00,,,0.00,Wunderground v.1.15,2013-04-13 19:55:00,
2013-04-13 15:00:00,46.9,34.1,29.98,WNW,284,8.0,8.0,61,0.00,,,0.00,Wunderground v.1.15,2013-04-13 20:00:00,
2013-04-13 15:05:00,46.5,33.8,29.98,SW,235,7.0,8.0,61,0.00,,,0.00,Wunderground v.1.15,2013-04-13 20:05:00,
2013-04-13 15:11:00,45.9,35.6,29.97,SW,236,7.0,9.0,67,0.00,,,0.00,Wunderground v.1.15,2013-04-13 20:11:00,
2013-04-13 15:16:00,46.1,34.6,29.97,NW,307,6.0,9.0,64,0.00,,,0.00,Wunderground v.1.15,2013-04-13 20:16:00,
2013-04-13 15:21:00,46.9,36.1,29.97,WNW,288,5.0,6.0,66,0.00,,,0.00,Wunderground v.1.15,2013-04-13 20:21:00,
2013-04-13 15:27:00,47.4,35.4,29.97,WNW,297,6.0,10.0,63,0.00,,,0.00,Wunderground v.1.15,2013-04-13 20:27:00,
2013-04-13 15:33:00,47.2,36.0,29.97,WNW,295,7.0,11.0,65,0.00,,,0.00,Wunderground v.1.15,2013-04-13 20:33:00,
2013-04-13 15:39:00,47.0,35.8,29.97,West,281,6.0,11.0,65,0.00,,,0.00,Wunderground v.1.15,2013-04-13 20:39:00,
2013-04-13 15:45:00,47.0,34.6,29.97,West,266,6.0,8.0,62,0.00,,,0.00,Wunderground v.1.15,2013-04-13 20:45:00,
2013-04-13 15:51:00,47.0,35.0,29.97,NW,311,5.0,5.0,63,0.00,,,0.00,Wunderground v.1.15,2013-04-13 20:51:00,
2013-04-13 15:57:00,47.5,34.7,29.97,WSW,238,6.0,13.0,61,0.00,,,0.00,Wunderground v.1.15,2013-04-13 20:57:00,
2013-04-13 16:04:00,48.3,35.0,29.97,NW,316,7.0,11.0,60,0.00,,,0.00,Wunderground v.1.15,2013-04-13 21:04:00,
2013-04-13 16:09:00,47.7,34.5,29.97,WNW,300,7.0,11.0,60,0.00,,,0.00,Wunderground v.1.15,2013-04-13 21:09:00,
2013-04-13 16:14:00,47.1,33.1,29.96,WNW,284,6.0,7.0,58,0.00,,,0.00,Wunderground v.1.15,2013-04-13 21:14:00,
2013-04-13 16:20:00,47.4,34.6,29.96,WSW,255,6.0,6.0,61,0.00,,,0.00,Wunderground v.1.15,2013-04-13 21:20:00,